Schneifelwetter: Wetterstation Hallschlag, 537 m . NN
Wetterdaten: Mittwoch, 11.06.2008
Datum Zeit Temp. A. Temp. 2 Feuchte A. Luftdruck Regen Wind Richtung Richtung Sonnenschein Helligkeit T Regen Taupunkt Windchill
11.06.2008 00:10 14,8 C 13,6 C 80 % 1019 hPa 0,0 l/m 13,6 km/h (3 Bft) N22.5 355 0 min 0 lux 0,00 min 11,4 C 11,4 C
11.06.2008 00:25 14,6 C 13,9 C 79 % 1019 hPa 0,0 l/m 20,0 km/h (4 Bft) N45 355 0 min 0 lux 0,00 min 11,0 C 9,2 C
11.06.2008 00:40 14,5 C 13,9 C 79 % 1019 hPa 0,0 l/m 9,9 km/h (2 Bft) N45 10 0 min 0 lux 0,00 min 10,9 C 12,6 C
11.06.2008 00:55 14,3 C 13,8 C 79 % 1019 hPa 0,0 l/m 12,5 km/h (3 Bft) N22.5 360 0 min 0 lux 0,00 min 10,7 C 11,3 C
11.06.2008 01:10 14,1 C 13,7 C 80 % 1019 hPa 0,0 l/m 12,3 km/h (3 Bft) N67.5 5 0 min 0 lux 0,00 min 10,7 C 11,1 C
11.06.2008 01:25 13,8 C 13,5 C 80 % 1019 hPa 0,0 l/m 16,3 km/h (3 Bft) N67.5 360 0 min 0 lux 0,00 min 10,4 C 9,3 C
11.06.2008 01:40 13,6 C 13,4 C 80 % 1019 hPa 0,0 l/m 19,1 km/h (3 Bft) N-NW45 340 0 min 0 lux 0,00 min 10,2 C 8,2 C
11.06.2008 01:55 13,5 C 13,2 C 79 % 1019 hPa 0,0 l/m 9,6 km/h (2 Bft) NW22.5 325 0 min 0 lux 0,00 min 9,9 C 11,7 C
11.06.2008 02:10 13,4 C 13,1 C 80 % 1019 hPa 0,0 l/m 6,7 km/h (2 Bft) N-NW45 335 0 min 0 lux 0,00 min 10,0 C 13,2 C
11.06.2008 02:25 13,2 C 13,1 C 80 % 1018 hPa 0,0 l/m 4,9 km/h (1 Bft) N22.5 5 0 min 0 lux 0,00 min 9,8 C 13,2 C
11.06.2008 02:40 13,1 C 12,9 C 80 % 1018 hPa 0,0 l/m 5,4 km/h (1 Bft) N 10 0 min 0 lux 0,00 min 9,7 C 13,1 C
11.06.2008 02:55 13,0 C 12,8 C 80 % 1018 hPa 0,0 l/m 8,8 km/h (2 Bft) N-NW22.5 330 0 min 0 lux 0,00 min 9,6 C 11,5 C
11.06.2008 03:11 12,6 C 12,0 C 81 % 1018 hPa 0,0 l/m 12,1 km/h (2 Bft) NW22.5 315 0 min 0 lux 0,00 min 9,4 C 9,5 C
11.06.2008 03:26 12,0 C 10,9 C 80 % 1018 hPa 0,0 l/m 8,9 km/h (2 Bft) W22.5 275 0 min 0 lux 0,00 min 8,7 C 10,4 C
11.06.2008 03:41 11,2 C 10,0 C 80 % 1018 hPa 0,0 l/m 5,5 km/h (1 Bft) W22.5 280 0 min 0 lux 0,00 min 7,9 C 11,2 C
11.06.2008 03:56 10,5 C 9,0 C 80 % 1018 hPa 0,0 l/m 1,2 km/h (1 Bft) W22.5 280 0 min 0 lux 0,00 min 7,2 C 10,5 C
11.06.2008 04:11 9,8 C 8,1 C 82 % 1018 hPa 0,0 l/m 1,9 km/h (1 Bft) W-NW22.5 285 0 min 0 lux 0,00 min 6,9 C 9,8 C
11.06.2008 04:26 9,2 C 7,5 C 84 % 1018 hPa 0,0 l/m 3,7 km/h (1 Bft) NW22.5 310 0 min 0 lux 0,00 min 6,6 C 9,2 C
11.06.2008 04:41 9,1 C 7,2 C 86 % 1018 hPa 0,0 l/m 6,5 km/h (2 Bft) NW45 305 0 min 0 lux 0,00 min 6,9 C 9,1 C
11.06.2008 04:56 8,8 C 6,9 C 85 % 1018 hPa 0,0 l/m 3,7 km/h (1 Bft) NW22.5 325 0 min 79 lux 0,00 min 6,4 C 8,8 C
11.06.2008 05:11 8,2 C 6,3 C 85 % 1018 hPa 0,0 l/m 0,0 km/h (0 Bft) N-NW 335 0 min 367 lux 0,00 min 5,8 C 8,2 C
11.06.2008 05:26 8,0 C 6,1 C 86 % 1018 hPa 0,0 l/m 8,9 km/h (2 Bft) NW45 305 0 min 926 lux 0,00 min 5,8 C 6,1 C
11.06.2008 05:41 7,6 C 5,8 C 86 % 1018 hPa 0,0 l/m 0,0 km/h (0 Bft) N 10 0 min 3,63 klux 0,00 min 5,4 C 7,6 C
11.06.2008 05:56 7,5 C 5,6 C 87 % 1018 hPa 0,0 l/m 0,0 km/h (0 Bft) N 10 0 min 7,06 klux 0,00 min 5,5 C 7,5 C
11.06.2008 06:11 8,1 C 5,7 C 87 % 1018 hPa 0,0 l/m 8,4 km/h (2 Bft) N22.5 5 0 min 11,8 klux 0,00 min 6,1 C 6,6 C
11.06.2008 06:25 9,8 C 6,1 C 83 % 1018 hPa 0,0 l/m 9,2 km/h (2 Bft) N-NO22.5 20 0 min 17,3 klux 0,00 min 7,1 C 7,9 C
11.06.2008 06:40 11,2 C 6,6 C 78 % 1018 hPa 0,0 l/m 7,1 km/h (2 Bft) N-NO 20 0 min 21,7 klux 0,00 min 7,5 C 10,7 C
11.06.2008 06:55 13,0 C 7,0 C 74 % 1018 hPa 0,0 l/m 1,9 km/h (1 Bft) N-NW45 340 0 min 26,1 klux 0,00 min 8,5 C 13,0 C
11.06.2008 07:10 14,1 C 7,7 C 68 % 1018 hPa 0,0 l/m 11,4 km/h (2 Bft) N-NO22.5 25 0 min 29,5 klux 0,00 min 8,3 C 11,5 C
11.06.2008 07:25 14,0 C 9,1 C 67 % 1019 hPa 0,0 l/m 13,1 km/h (3 Bft) N-NO67.5 25 0 min 34,8 klux 0,00 min 8,0 C 10,7 C
11.06.2008 07:40 14,0 C 9,7 C 66 % 1019 hPa 0,0 l/m 10,4 km/h (2 Bft) N22.5 10 0 min 37,5 klux 0,00 min 7,7 C 11,8 C
11.06.2008 08:01 14,4 C 10,6 C 64 % 1019 hPa 0,0 l/m 11,9 km/h (2 Bft) N45 10 0 min 40,7 klux 0,00 min 7,7 C 11,6 C
11.06.2008 08:16 14,8 C 12,1 C 63 % 1019 hPa 0,0 l/m 13,7 km/h (3 Bft) N22.5 10 0 min 44,5 klux 0,00 min 7,8 C 11,4 C
11.06.2008 08:31 15,0 C 13,2 C 60 % 1019 hPa 0,0 l/m 16,0 km/h (3 Bft) NO45 45 0 min 48,4 klux 0,00 min 7,3 C 10,9 C
11.06.2008 08:47 15,7 C 14,1 C 59 % 1019 hPa 0,0 l/m 14,0 km/h (3 Bft) O-NO22.5 60 0 min 52,0 klux 0,00 min 7,7 C 12,4 C
11.06.2008 09:01 16,0 C 15,1 C 57 % 1019 hPa 0,0 l/m 13,6 km/h (3 Bft) NO45 35 0 min 55,0 klux 0,00 min 7,5 C 12,9 C
11.06.2008 09:16 16,1 C 15,8 C 56 % 1019 hPa 0,0 l/m 15,0 km/h (3 Bft) NO45 45 0 min 58,8 klux 0,00 min 7,3 C 12,5 C
11.06.2008 09:31 16,1 C 16,4 C 55 % 1019 hPa 0,0 l/m 17,1 km/h (3 Bft) NO45 45 15 min 62,3 klux 0,00 min 7,1 C 11,9 C
11.06.2008 09:46 16,3 C 16,7 C 54 % 1019 hPa 0,0 l/m 18,3 km/h (3 Bft) NO45 50 15 min 68,3 klux 0,00 min 7,0 C 11,8 C
11.06.2008 10:01 16,6 C 16,9 C 52 % 1019 hPa 0,0 l/m 22,8 km/h (4 Bft) N-NW45 340 15 min 71,1 klux 0,00 min 6,7 C 11,2 C
11.06.2008 10:16 16,8 C 17,6 C 53 % 1019 hPa 0,0 l/m 20,5 km/h (4 Bft) N-NO45 25 15 min 93,9 klux 0,00 min 7,2 C 12,0 C
11.06.2008 10:31 16,6 C 18,5 C 51 % 1019 hPa 0,0 l/m 26,5 km/h (4 Bft) N-NO22.5 25 15 min 99 klux 0,00 min 6,4 C 10,5 C
11.06.2008 10:47 16,7 C 18,1 C 50 % 1019 hPa 0,0 l/m 17,6 km/h (3 Bft) N-NW67.5 330 16 min 90,4 klux 0,00 min 6,2 C 12,5 C
11.06.2008 11:01 17,1 C 18,9 C 50 % 1019 hPa 0,0 l/m 14,1 km/h (3 Bft) N-NW45 330 14 min 90,7 klux 0,00 min 6,6 C 14,0 C
11.06.2008 11:16 17,0 C 19,0 C 51 % 1019 hPa 0,0 l/m 15,6 km/h (3 Bft) NW45 325 0 min 56,9 klux 0,00 min 6,8 C 13,4 C
11.06.2008 11:31 17,1 C 19,8 C 50 % 1019 hPa 0,0 l/m 19,0 km/h (3 Bft) N45 10 15 min 117 klux 0,00 min 6,6 C 12,7 C
11.06.2008 11:46 17,6 C 19,7 C 51 % 1019 hPa 0,0 l/m 21,0 km/h (4 Bft) W-NW67.5 300 15 min 123 klux 0,00 min 7,3 C 12,9 C
11.06.2008 12:01 17,5 C 19,4 C 51 % 1019 hPa 0,0 l/m 16,3 km/h (3 Bft) N-NW67.5 345 0 min 46,6 klux 0,00 min 7,3 C 13,9 C
11.06.2008 12:16 17,1 C 19,1 C 54 % 1019 hPa 0,0 l/m 17,3 km/h (3 Bft) NW67.5 305 0 min 53,9 klux 0,00 min 7,7 C 13,1 C
11.06.2008 12:32 17,6 C 19,3 C 53 % 1019 hPa 0,0 l/m 17,9 km/h (3 Bft) W22.5 275 16 min 69,7 klux 0,00 min 7,9 C 13,6 C
11.06.2008 12:46 17,3 C 19,2 C 54 % 1019 hPa 0,0 l/m 19,9 km/h (4 Bft) W45 280 14 min 78,9 klux 0,00 min 7,9 C 12,7 C
11.06.2008 13:01 17,8 C 19,8 C 52 % 1019 hPa 0,0 l/m 23,5 km/h (4 Bft) W22.5 270 15 min 60,9 klux 0,00 min 7,8 C 12,7 C
11.06.2008 13:16 17,8 C 20,1 C 52 % 1019 hPa 0,0 l/m 21,6 km/h (4 Bft) W45 270 15 min 66,5 klux 0,00 min 7,8 C 13,0 C
11.06.2008 13:31 18,2 C 20,6 C 51 % 1019 hPa 0,0 l/m 20,5 km/h (4 Bft) W22.5 270 15 min 125 klux 0,00 min 7,9 C 13,8 C
11.06.2008 13:46 17,4 C 19,3 C 52 % 1019 hPa 0,0 l/m 19,6 km/h (3 Bft) W45 265 0 min 42,6 klux 0,00 min 7,4 C 12,9 C
11.06.2008 14:01 16,9 C 18,5 C 55 % 1019 hPa 0,0 l/m 17,4 km/h (3 Bft) W45 275 0 min 37,6 klux 0,00 min 7,8 C 12,8 C
11.06.2008 14:17 16,5 C 17,8 C 54 % 1019 hPa 0,0 l/m 18,6 km/h (3 Bft) W22.5 265 0 min 33,6 klux 0,00 min 7,2 C 12,0 C
11.06.2008 14:32 16,0 C 17,4 C 57 % 1018 hPa 0,0 l/m 18,5 km/h (3 Bft) W45 280 0 min 38,8 klux 0,00 min 7,5 C 11,4 C
11.06.2008 14:46 15,9 C 16,9 C 57 % 1018 hPa 0,0 l/m 26,0 km/h (4 Bft) W45 275 0 min 40,5 klux 0,00 min 7,4 C 9,6 C
11.06.2008 15:01 15,3 C 16,0 C 58 % 1018 hPa 0,0 l/m 17,7 km/h (3 Bft) W22.5 270 0 min 25,6 klux 0,00 min 7,1 C 10,7 C
11.06.2008 15:16 15,0 C 15,7 C 60 % 1019 hPa 0,0 l/m 18,6 km/h (3 Bft) W45 270 0 min 26,3 klux 0,00 min 7,3 C 10,1 C
11.06.2008 15:31 15,0 C 15,4 C 62 % 1018 hPa 0,0 l/m 14,6 km/h (3 Bft) W45 280 0 min 35,4 klux 0,00 min 7,8 C 11,3 C
11.06.2008 15:46 14,7 C 15,4 C 63 % 1018 hPa 0,0 l/m 15,9 km/h (3 Bft) W45 270 0 min 28,2 klux 0,00 min 7,7 C 10,5 C
11.06.2008 16:01 14,6 C 14,7 C 64 % 1018 hPa 0,0 l/m 17,2 km/h (3 Bft) W22.5 265 0 min 19,6 klux 0,00 min 7,9 C 10,0 C
11.06.2008 16:17 14,2 C 14,2 C 65 % 1018 hPa 0,0 l/m 19,6 km/h (3 Bft) W22.5 265 0 min 18,4 klux 0,00 min 7,7 C 8,8 C
11.06.2008 16:31 13,2 C 13,2 C 68 % 1018 hPa 0,0 l/m 21,9 km/h (4 Bft) W22.5 270 0 min 8,35 klux 0,00 min 7,4 C 6,9 C
11.06.2008 16:46 12,7 C 12,5 C 73 % 1018 hPa 0,0 l/m 17,0 km/h (3 Bft) W22.5 270 0 min 9,9 klux 0,00 min 8,0 C 7,7 C
11.06.2008 17:01 13,5 C 15,1 C 74 % 1018 hPa 0,0 l/m 9,0 km/h (2 Bft) W45 275 15 min 76,6 klux 0,00 min 9,0 C 12,0 C
11.06.2008 17:16 13,8 C 14,8 C 71 % 1018 hPa 0,0 l/m 12,7 km/h (3 Bft) W-NW45 300 15 min 62,1 klux 0,00 min 8,6 C 10,6 C
11.06.2008 17:31 14,2 C 14,6 C 70 % 1017 hPa 0,0 l/m 15,7 km/h (3 Bft) W45 265 0 min 31,0 klux 0,00 min 8,8 C 10,0 C
11.06.2008 17:46 14,5 C 15,1 C 67 % 1017 hPa 0,0 l/m 21,8 km/h (4 Bft) W45 275 0 min 34,6 klux 0,00 min 8,4 C 8,6 C
11.06.2008 18:02 14,4 C 14,9 C 66 % 1017 hPa 0,0 l/m 19,3 km/h (3 Bft) W-NW67.5 295 0 min 44,8 klux 0,00 min 8,1 C 9,2 C
11.06.2008 18:16 14,5 C 15,9 C 65 % 1017 hPa 0,0 l/m 22,9 km/h (4 Bft) W-NW45 290 0 min 59,5 klux 0,00 min 8,0 C 8,4 C
11.06.2008 18:31 14,3 C 15,3 C 67 % 1017 hPa 0,0 l/m 19,0 km/h (3 Bft) W45 275 0 min 20,6 klux 0,00 min 8,3 C 9,1 C
11.06.2008 18:46 14,4 C 16,2 C 65 % 1017 hPa 0,0 l/m 21,5 km/h (4 Bft) W45 280 0 min 52,3 klux 0,00 min 7,9 C 8,6 C
11.06.2008 19:01 14,3 C 16,1 C 65 % 1017 hPa 0,0 l/m 19,2 km/h (3 Bft) W45 275 0 min 48,4 klux 0,00 min 7,8 C 9,1 C
11.06.2008 19:16 14,8 C 17,5 C 64 % 1017 hPa 0,0 l/m 20,8 km/h (4 Bft) W45 265 0 min 38,8 klux 0,00 min 8,1 C 9,3 C
11.06.2008 19:31 14,6 C 16,0 C 63 % 1017 hPa 0,0 l/m 27,8 km/h (4 Bft) W45 270 0 min 16,7 klux 0,00 min 7,6 C 7,5 C
11.06.2008 19:47 13,7 C 14,5 C 64 % 1017 hPa 0,0 l/m 19,2 km/h (3 Bft) W-NW67.5 295 0 min 8,78 klux 0,00 min 7,0 C 8,3 C
11.06.2008 20:02 13,6 C 15,2 C 63 % 1017 hPa 0,0 l/m 20,6 km/h (4 Bft) W-NW45 285 0 min 25,7 klux 0,00 min 6,7 C 7,8 C
11.06.2008 20:16 13,5 C 15,3 C 63 % 1017 hPa 0,0 l/m 17,6 km/h (3 Bft) W45 275 0 min 28,3 klux 0,00 min 6,6 C 8,5 C
11.06.2008 20:31 12,8 C 13,9 C 63 % 1017 hPa 0,0 l/m 20,3 km/h (4 Bft) W67.5 275 0 min 14,9 klux 0,00 min 5,9 C 6,8 C
11.06.2008 20:46 12,2 C 12,5 C 64 % 1017 hPa 0,0 l/m 19,9 km/h (4 Bft) W22.5 280 0 min 13,2 klux 0,00 min 5,6 C 6,2 C
11.06.2008 21:01 11,6 C 11,4 C 65 % 1017 hPa 0,0 l/m 17,5 km/h (3 Bft) W-NW45 285 0 min 6,13 klux 0,00 min 5,2 C 6,2 C
11.06.2008 21:16 10,9 C 10,3 C 66 % 1017 hPa 0,0 l/m 11,1 km/h (2 Bft) W-NW45 285 0 min 3,54 klux 0,00 min 4,8 C 8,0 C
11.06.2008 21:31 10,4 C 9,4 C 68 % 1017 hPa 0,0 l/m 10,1 km/h (2 Bft) W22.5 275 0 min 2,59 klux 0,00 min 4,8 C 8,0 C
11.06.2008 21:47 9,9 C 8,5 C 69 % 1017 hPa 0,0 l/m 11,4 km/h (2 Bft) W22.5 270 0 min 1,38 klux 0,00 min 4,5 C 6,7 C
11.06.2008 22:01 9,5 C 7,9 C 69 % 1017 hPa 0,0 l/m 11,9 km/h (2 Bft) W45 275 0 min 554 lux 0,00 min 4,1 C 6,0 C
11.06.2008 22:16 8,8 C 7,2 C 71 % 1017 hPa 0,0 l/m 6,5 km/h (2 Bft) W22.5 265 0 min 196 lux 0,00 min 3,8 C 8,7 C
11.06.2008 22:31 8,3 C 6,5 C 72 % 1017 hPa 0,0 l/m 4,3 km/h (1 Bft) W 275 0 min 27 lux 0,00 min 3,6 C 8,3 C
11.06.2008 22:46 7,6 C 5,9 C 74 % 1017 hPa 0,0 l/m 2,8 km/h (1 Bft) W-SW 250 0 min 4 lux 0,00 min 3,3 C 7,6 C
11.06.2008 23:01 7,1 C 5,3 C 75 % 1018 hPa 0,0 l/m 6,1 km/h (2 Bft) W22.5 260 0 min 0 lux 0,00 min 3,0 C 7,1 C
11.06.2008 23:16 7,0 C 5,1 C 77 % 1018 hPa 0,0 l/m 4,2 km/h (1 Bft) W 270 0 min 0 lux 0,00 min 3,2 C 7,0 C
11.06.2008 23:32 6,8 C 4,9 C 78 % 1017 hPa 0,0 l/m 5,1 km/h (1 Bft) W 270 0 min 0 lux 0,00 min 3,2 C 6,8 C
11.06.2008 23:46 6,5 C 4,5 C 77 % 1017 hPa 0,0 l/m 3,9 km/h (1 Bft) W 260 0 min 0 lux 0,00 min 2,8 C 6,5 C
_ Min-Zeit 23:46 23:46 10:47 17:31 - 05:11 - - - - - 23:46 22:01
Minimum _ 6,5 C 4,5 C 50 % 1017 hPa - 0,0 km/h (0 Bft) - - - - - 2,8 C 6,0 C
_ Max-Zeit 13:31 13:31 05:56 00:10 00:10 19:31 - - 10:47 13:31 00:10 00:10 11:01
Maximum _ 18,2 C 20,6 C 87 % 1019 hPa 0,0 l/m 27,8 km/h
W (4 Bft)
- - 16 min 125 klux 0,00 min 11,4 C 14,0 C
Durchschnitt _ 13,4 C 13,1 C 68 % 1018 hPa #0,0 l/m 13,8 km/h (3 Bft) W - #4:00 h 29,7 klux #0 min. 7,3 C 10,2 C